sensor_id;sensor_type;location;lat;lon;timestamp;temperature;humidity
9941;DHT22;5009;50.656;7.188;2022-09-09T00:01:35;18.00;99.90
9941;DHT22;5009;50.656;7.188;2022-09-09T00:04:26;18.10;99.90
9941;DHT22;5009;50.656;7.188;2022-09-09T00:09:21;18.10;99.90
9941;DHT22;5009;50.656;7.188;2022-09-09T00:12:16;18.10;99.90
9941;DHT22;5009;50.656;7.188;2022-09-09T00:14:52;18.10;99.90
9941;DHT22;5009;50.656;7.188;2022-09-09T00:20:12;18.00;99.90
9941;DHT22;5009;50.656;7.188;2022-09-09T00:22:43;18.00;99.90
9941;DHT22;5009;50.656;7.188;2022-09-09T00:25:16;18.00;99.90
9941;DHT22;5009;50.656;7.188;2022-09-09T00:27:50;17.90;99.90
9941;DHT22;5009;50.656;7.188;2022-09-09T00:30:22;17.90;99.90
9941;DHT22;5009;50.656;7.188;2022-09-09T00:32:58;17.90;99.90
9941;DHT22;5009;50.656;7.188;2022-09-09T00:35:31;17.90;99.90
9941;DHT22;5009;50.656;7.188;2022-09-09T00:38:03;17.90;99.90
9941;DHT22;5009;50.656;7.188;2022-09-09T00:40:41;17.80;99.90
9941;DHT22;5009;50.656;7.188;2022-09-09T00:43:26;17.80;99.90
9941;DHT22;5009;50.656;7.188;2022-09-09T00:45:55;17.70;99.90
9941;DHT22;5009;50.656;7.188;2022-09-09T00:48:35;17.80;99.90
9941;DHT22;5009;50.656;7.188;2022-09-09T00:54:08;17.80;99.90
9941;DHT22;5009;50.656;7.188;2022-09-09T00:56:46;17.70;99.90
9941;DHT22;5009;50.656;7.188;2022-09-09T01:01:55;17.70;99.90
9941;DHT22;5009;50.656;7.188;2022-09-09T01:04:29;17.80;99.90
9941;DHT22;5009;50.656;7.188;2022-09-09T01:07:16;17.80;99.90
9941;DHT22;5009;50.656;7.188;2022-09-09T01:10:00;17.80;99.90
9941;DHT22;5009;50.656;7.188;2022-09-09T01:12:41;17.70;99.90
9941;DHT22;5009;50.656;7.188;2022-09-09T01:15:21;17.60;99.90
9941;DHT22;5009;50.656;7.188;2022-09-09T01:17:52;17.60;99.90
9941;DHT22;5009;50.656;7.188;2022-09-09T01:20:24;17.50;99.90
9941;DHT22;5009;50.656;7.188;2022-09-09T01:28:40;17.50;99.90
9941;DHT22;5009;50.656;7.188;2022-09-09T01:31:09;17.50;99.90
9941;DHT22;5009;50.656;7.188;2022-09-09T01:33:36;17.50;99.90
9941;DHT22;5009;50.656;7.188;2022-09-09T01:36:20;17.50;99.90
9941;DHT22;5009;50.656;7.188;2022-09-09T01:38:47;17.40;99.90
9941;DHT22;5009;50.656;7.188;2022-09-09T01:41:12;17.40;99.90
9941;DHT22;5009;50.656;7.188;2022-09-09T01:43:38;17.40;99.90
9941;DHT22;5009;50.656;7.188;2022-09-09T01:46:04;17.50;99.90
9941;DHT22;5009;50.656;7.188;2022-09-09T01:48:30;17.50;99.90
9941;DHT22;5009;50.656;7.188;2022-09-09T01:50:56;17.50;99.90
9941;DHT22;5009;50.656;7.188;2022-09-09T01:53:22;17.50;99.90
9941;DHT22;5009;50.656;7.188;2022-09-09T02:03:47;17.60;99.90
9941;DHT22;5009;50.656;7.188;2022-09-09T02:06:32;17.50;99.90
9941;DHT22;5009;50.656;7.188;2022-09-09T02:09:02;17.50;99.90
9941;DHT22;5009;50.656;7.188;2022-09-09T02:11:30;17.60;99.90
9941;DHT22;5009;50.656;7.188;2022-09-09T02:14:12;17.60;99.90
9941;DHT22;5009;50.656;7.188;2022-09-09T02:16:44;17.60;99.90
9941;DHT22;5009;50.656;7.188;2022-09-09T02:19:23;17.50;99.90
9941;DHT22;5009;50.656;7.188;2022-09-09T02:21:53;17.50;99.90
9941;DHT22;5009;50.656;7.188;2022-09-09T02:24:20;17.60;99.90
9941;DHT22;5009;50.656;7.188;2022-09-09T02:26:49;17.50;99.90
9941;DHT22;5009;50.656;7.188;2022-09-09T02:29:36;17.50;99.90
9941;DHT22;5009;50.656;7.188;2022-09-09T02:32:07;17.60;99.90
9941;DHT22;5009;50.656;7.188;2022-09-09T02:34:39;17.50;99.90
9941;DHT22;5009;50.656;7.188;2022-09-09T02:37:08;17.50;99.90
9941;DHT22;5009;50.656;7.188;2022-09-09T02:39:34;17.50;99.90
9941;DHT22;5009;50.656;7.188;2022-09-09T02:42:00;17.50;99.90
9941;DHT22;5009;50.656;7.188;2022-09-09T02:44:26;17.50;99.90
9941;DHT22;5009;50.656;7.188;2022-09-09T02:47:23;17.50;99.90
9941;DHT22;5009;50.656;7.188;2022-09-09T02:50:15;17.50;99.90
9941;DHT22;5009;50.656;7.188;2022-09-09T02:55:38;17.50;99.90
9941;DHT22;5009;50.656;7.188;2022-09-09T02:58:08;17.50;99.90
9941;DHT22;5009;50.656;7.188;2022-09-09T03:00:37;17.40;99.90
9941;DHT22;5009;50.656;7.188;2022-09-09T03:03:07;17.40;99.90
9941;DHT22;5009;50.656;7.188;2022-09-09T03:05:34;17.40;99.90
9941;DHT22;5009;50.656;7.188;2022-09-09T03:07:59;17.40;99.90
9941;DHT22;5009;50.656;7.188;2022-09-09T03:10:25;17.40;99.90
9941;DHT22;5009;50.656;7.188;2022-09-09T03:12:51;17.50;99.90
9941;DHT22;5009;50.656;7.188;2022-09-09T03:15:16;17.50;99.90
9941;DHT22;5009;50.656;7.188;2022-09-09T03:17:42;17.60;99.90
9941;DHT22;5009;50.656;7.188;2022-09-09T03:20:08;17.50;99.90
9941;DHT22;5009;50.656;7.188;2022-09-09T03:22:34;17.60;99.90
9941;DHT22;5009;50.656;7.188;2022-09-09T03:25:00;17.60;99.90
9941;DHT22;5009;50.656;7.188;2022-09-09T03:27:27;17.60;99.90
9941;DHT22;5009;50.656;7.188;2022-09-09T03:29:52;17.60;99.90
9941;DHT22;5009;50.656;7.188;2022-09-09T03:32:19;17.60;99.90
9941;DHT22;5009;50.656;7.188;2022-09-09T03:34:44;17.60;99.90
9941;DHT22;5009;50.656;7.188;2022-09-09T03:37:11;17.60;99.90
9941;DHT22;5009;50.656;7.188;2022-09-09T03:39:36;17.60;99.90
9941;DHT22;5009;50.656;7.188;2022-09-09T03:42:02;17.60;99.90
9941;DHT22;5009;50.656;7.188;2022-09-09T03:44:31;17.60;99.90
9941;DHT22;5009;50.656;7.188;2022-09-09T03:46:56;17.50;99.90
9941;DHT22;5009;50.656;7.188;2022-09-09T03:49:22;17.50;99.90
9941;DHT22;5009;50.656;7.188;2022-09-09T03:51:48;17.50;99.90
9941;DHT22;5009;50.656;7.188;2022-09-09T03:54:14;17.50;99.90
9941;DHT22;5009;50.656;7.188;2022-09-09T03:56:39;17.50;99.90
9941;DHT22;5009;50.656;7.188;2022-09-09T03:59:07;17.50;99.90
9941;DHT22;5009;50.656;7.188;2022-09-09T04:01:34;17.40;99.90
9941;DHT22;5009;50.656;7.188;2022-09-09T04:03:59;17.30;99.90
9941;DHT22;5009;50.656;7.188;2022-09-09T04:06:27;17.30;99.90
9941;DHT22;5009;50.656;7.188;2022-09-09T04:08:53;17.30;99.90
9941;DHT22;5009;50.656;7.188;2022-09-09T04:11:18;17.30;99.90
9941;DHT22;5009;50.656;7.188;2022-09-09T04:13:45;17.40;99.90
9941;DHT22;5009;50.656;7.188;2022-09-09T04:16:11;17.40;99.90
9941;DHT22;5009;50.656;7.188;2022-09-09T04:18:38;17.40;99.90
9941;DHT22;5009;50.656;7.188;2022-09-09T04:21:04;17.50;99.90
9941;DHT22;5009;50.656;7.188;2022-09-09T04:23:32;17.50;99.90
9941;DHT22;5009;50.656;7.188;2022-09-09T04:25:59;17.50;99.90
9941;DHT22;5009;50.656;7.188;2022-09-09T04:28:28;17.50;99.90
9941;DHT22;5009;50.656;7.188;2022-09-09T04:30:54;17.50;99.90
9941;DHT22;5009;50.656;7.188;2022-09-09T04:33:20;17.50;99.90
9941;DHT22;5009;50.656;7.188;2022-09-09T04:35:49;17.50;99.90
9941;DHT22;5009;50.656;7.188;2022-09-09T04:38:16;17.60;99.90
9941;DHT22;5009;50.656;7.188;2022-09-09T04:40:43;17.60;99.90
9941;DHT22;5009;50.656;7.188;2022-09-09T04:43:10;17.60;99.90
9941;DHT22;5009;50.656;7.188;2022-09-09T04:45:35;17.60;99.90
9941;DHT22;5009;50.656;7.188;2022-09-09T04:48:02;17.60;99.90
9941;DHT22;5009;50.656;7.188;2022-09-09T04:50:28;17.60;99.90
9941;DHT22;5009;50.656;7.188;2022-09-09T04:52:54;17.60;99.90
9941;DHT22;5009;50.656;7.188;2022-09-09T04:55:19;17.60;99.90
9941;DHT22;5009;50.656;7.188;2022-09-09T04:57:45;17.60;99.90
9941;DHT22;5009;50.656;7.188;2022-09-09T05:00:11;17.50;99.90
9941;DHT22;5009;50.656;7.188;2022-09-09T05:02:38;17.60;99.90
9941;DHT22;5009;50.656;7.188;2022-09-09T05:05:05;17.60;99.90
9941;DHT22;5009;50.656;7.188;2022-09-09T05:07:31;17.60;99.90
9941;DHT22;5009;50.656;7.188;2022-09-09T05:09:57;17.70;99.90
9941;DHT22;5009;50.656;7.188;2022-09-09T05:12:23;17.60;99.90
9941;DHT22;5009;50.656;7.188;2022-09-09T05:14:53;17.60;99.90
9941;DHT22;5009;50.656;7.188;2022-09-09T05:17:19;17.60;99.90
9941;DHT22;5009;50.656;7.188;2022-09-09T05:19:44;17.60;99.90
9941;DHT22;5009;50.656;7.188;2022-09-09T05:22:10;17.70;99.90
9941;DHT22;5009;50.656;7.188;2022-09-09T05:24:37;17.60;99.90
9941;DHT22;5009;50.656;7.188;2022-09-09T05:27:03;17.60;99.90
9941;DHT22;5009;50.656;7.188;2022-09-09T05:29:30;17.60;99.90
9941;DHT22;5009;50.656;7.188;2022-09-09T05:31:59;17.50;99.90
9941;DHT22;5009;50.656;7.188;2022-09-09T05:34:24;17.70;99.90
9941;DHT22;5009;50.656;7.188;2022-09-09T05:36:50;17.70;99.90
9941;DHT22;5009;50.656;7.188;2022-09-09T05:39:17;17.70;99.90
9941;DHT22;5009;50.656;7.188;2022-09-09T05:41:43;17.70;99.90
9941;DHT22;5009;50.656;7.188;2022-09-09T05:44:08;17.60;99.90
9941;DHT22;5009;50.656;7.188;2022-09-09T05:46:34;17.60;99.90
9941;DHT22;5009;50.656;7.188;2022-09-09T05:48:59;17.60;99.90
9941;DHT22;5009;50.656;7.188;2022-09-09T05:51:27;17.70;99.90
9941;DHT22;5009;50.656;7.188;2022-09-09T05:53:55;17.70;99.90
9941;DHT22;5009;50.656;7.188;2022-09-09T05:56:25;17.80;99.90
9941;DHT22;5009;50.656;7.188;2022-09-09T05:58:51;17.80;99.90
9941;DHT22;5009;50.656;7.188;2022-09-09T06:03:50;17.80;99.90
9941;DHT22;5009;50.656;7.188;2022-09-09T06:06:21;17.80;99.90
9941;DHT22;5009;50.656;7.188;2022-09-09T06:08:47;18.00;99.90
9941;DHT22;5009;50.656;7.188;2022-09-09T06:11:20;18.00;99.90
9941;DHT22;5009;50.656;7.188;2022-09-09T06:13:46;18.30;99.90
9941;DHT22;5009;50.656;7.188;2022-09-09T06:16:17;18.50;99.90
9941;DHT22;5009;50.656;7.188;2022-09-09T06:18:43;18.70;99.90
9941;DHT22;5009;50.656;7.188;2022-09-09T06:21:15;19.00;99.90
9941;DHT22;5009;50.656;7.188;2022-09-09T06:23:40;19.10;99.90
9941;DHT22;5009;50.656;7.188;2022-09-09T06:26:09;19.10;99.90
9941;DHT22;5009;50.656;7.188;2022-09-09T06:28:36;19.10;99.90
9941;DHT22;5009;50.656;7.188;2022-09-09T06:31:04;19.30;99.90
9941;DHT22;5009;50.656;7.188;2022-09-09T06:33:38;19.50;99.90
9941;DHT22;5009;50.656;7.188;2022-09-09T06:36:21;19.70;99.90
9941;DHT22;5009;50.656;7.188;2022-09-09T06:38:47;20.00;99.90
9941;DHT22;5009;50.656;7.188;2022-09-09T06:41:15;20.20;99.90
9941;DHT22;5009;50.656;7.188;2022-09-09T06:43:41;20.50;99.90
9941;DHT22;5009;50.656;7.188;2022-09-09T06:46:15;21.00;99.90
9941;DHT22;5009;50.656;7.188;2022-09-09T06:48:42;22.00;97.90
9941;DHT22;5009;50.656;7.188;2022-09-09T06:51:12;22.80;96.70
9941;DHT22;5009;50.656;7.188;2022-09-09T06:53:39;23.40;94.80
9941;DHT22;5009;50.656;7.188;2022-09-09T06:58:40;25.20;91.70
9941;DHT22;5009;50.656;7.188;2022-09-09T07:01:17;26.10;90.10
9941;DHT22;5009;50.656;7.188;2022-09-09T07:03:46;27.50;84.40
9941;DHT22;5009;50.656;7.188;2022-09-09T07:06:18;28.60;79.50
9941;DHT22;5009;50.656;7.188;2022-09-09T07:08:49;30.00;75.20
9941;DHT22;5009;50.656;7.188;2022-09-09T07:11:15;31.70;69.60
9941;DHT22;5009;50.656;7.188;2022-09-09T07:13:41;32.50;64.20
9941;DHT22;5009;50.656;7.188;2022-09-09T07:16:09;33.10;60.00
9941;DHT22;5009;50.656;7.188;2022-09-09T07:18:35;33.40;56.80
9941;DHT22;5009;50.656;7.188;2022-09-09T07:21:02;34.30;55.80
9941;DHT22;5009;50.656;7.188;2022-09-09T07:23:29;34.90;53.10
9941;DHT22;5009;50.656;7.188;2022-09-09T07:25:55;34.80;52.20
9941;DHT22;5009;50.656;7.188;2022-09-09T07:28:21;32.00;51.20
9941;DHT22;5009;50.656;7.188;2022-09-09T07:30:59;31.20;52.80
9941;DHT22;5009;50.656;7.188;2022-09-09T07:33:28;30.40;52.40
9941;DHT22;5009;50.656;7.188;2022-09-09T07:36:09;29.00;53.70
9941;DHT22;5009;50.656;7.188;2022-09-09T07:38:43;28.10;55.40
9941;DHT22;5009;50.656;7.188;2022-09-09T07:41:30;27.60;56.60
9941;DHT22;5009;50.656;7.188;2022-09-09T07:43:57;26.90;57.60
9941;DHT22;5009;50.656;7.188;2022-09-09T07:46:25;26.40;58.60
9941;DHT22;5009;50.656;7.188;2022-09-09T07:48:53;26.30;59.40
9941;DHT22;5009;50.656;7.188;2022-09-09T07:51:24;25.80;60.00
9941;DHT22;5009;50.656;7.188;2022-09-09T07:53:55;25.50;62.90
9941;DHT22;5009;50.656;7.188;2022-09-09T07:56:23;25.60;64.20
9941;DHT22;5009;50.656;7.188;2022-09-09T07:58:50;25.60;63.60
9941;DHT22;5009;50.656;7.188;2022-09-09T08:01:18;25.50;64.00
9941;DHT22;5009;50.656;7.188;2022-09-09T08:03:45;25.70;64.10
9941;DHT22;5009;50.656;7.188;2022-09-09T08:06:11;25.50;64.40
9941;DHT22;5009;50.656;7.188;2022-09-09T08:08:38;24.90;65.90
9941;DHT22;5009;50.656;7.188;2022-09-09T08:11:08;24.70;67.30
9941;DHT22;5009;50.656;7.188;2022-09-09T08:13:35;24.30;68.60
9941;DHT22;5009;50.656;7.188;2022-09-09T08:16:15;24.10;70.60
9941;DHT22;5009;50.656;7.188;2022-09-09T08:18:42;24.10;71.40
9941;DHT22;5009;50.656;7.188;2022-09-09T08:21:12;24.00;71.90
9941;DHT22;5009;50.656;7.188;2022-09-09T08:23:42;23.90;71.00
9941;DHT22;5009;50.656;7.188;2022-09-09T08:26:16;23.90;73.00
9941;DHT22;5009;50.656;7.188;2022-09-09T08:28:43;24.00;73.10
9941;DHT22;5009;50.656;7.188;2022-09-09T08:31:14;23.80;71.30
9941;DHT22;5009;50.656;7.188;2022-09-09T08:33:42;23.50;71.40
9941;DHT22;5009;50.656;7.188;2022-09-09T08:36:13;23.50;72.90
9941;DHT22;5009;50.656;7.188;2022-09-09T08:38:41;23.90;72.60
9941;DHT22;5009;50.656;7.188;2022-09-09T08:41:48;24.10;72.10
9941;DHT22;5009;50.656;7.188;2022-09-09T08:58:21;23.50;72.40
9941;DHT22;5009;50.656;7.188;2022-09-09T09:03:58;23.20;74.00
9941;DHT22;5009;50.656;7.188;2022-09-09T09:09:15;23.30;72.80
9941;DHT22;5009;50.656;7.188;2022-09-09T09:11:55;23.40;71.90
9941;DHT22;5009;50.656;7.188;2022-09-09T09:14:30;23.60;72.60
9941;DHT22;5009;50.656;7.188;2022-09-09T09:19:41;23.90;72.10
9941;DHT22;5009;50.656;7.188;2022-09-09T09:22:28;24.10;71.40
9941;DHT22;5009;50.656;7.188;2022-09-09T09:25:11;24.00;69.30
9941;DHT22;5009;50.656;7.188;2022-09-09T09:28:18;23.90;70.20
9941;DHT22;5009;50.656;7.188;2022-09-09T09:31:06;23.90;71.30
9941;DHT22;5009;50.656;7.188;2022-09-09T09:33:52;24.00;71.80
9941;DHT22;5009;50.656;7.188;2022-09-09T09:36:19;24.20;70.50
9941;DHT22;5009;50.656;7.188;2022-09-09T09:38:54;24.10;70.30
9941;DHT22;5009;50.656;7.188;2022-09-09T09:41:38;24.20;70.70
9941;DHT22;5009;50.656;7.188;2022-09-09T09:44:18;24.10;69.70
9941;DHT22;5009;50.656;7.188;2022-09-09T09:46:46;23.60;69.70
9941;DHT22;5009;50.656;7.188;2022-09-09T09:49:12;23.20;70.50
9941;DHT22;5009;50.656;7.188;2022-09-09T09:51:39;23.20;70.90
9941;DHT22;5009;50.656;7.188;2022-09-09T09:56:40;23.20;71.10
9941;DHT22;5009;50.656;7.188;2022-09-09T09:59:18;23.10;70.70
9941;DHT22;5009;50.656;7.188;2022-09-09T10:01:44;23.20;71.60
9941;DHT22;5009;50.656;7.188;2022-09-09T10:04:22;23.00;71.20
9941;DHT22;5009;50.656;7.188;2022-09-09T10:06:49;22.80;71.70
9941;DHT22;5009;50.656;7.188;2022-09-09T10:20:33;22.90;72.00
9941;DHT22;5009;50.656;7.188;2022-09-09T10:33:53;22.70;73.90
9941;DHT22;5009;50.656;7.188;2022-09-09T10:36:24;22.70;73.10
9941;DHT22;5009;50.656;7.188;2022-09-09T10:39:01;22.70;74.40
9941;DHT22;5009;50.656;7.188;2022-09-09T10:44:37;22.80;74.80
9941;DHT22;5009;50.656;7.188;2022-09-09T10:56:18;23.30;73.10
9941;DHT22;5009;50.656;7.188;2022-09-09T10:58:52;23.30;71.60
9941;DHT22;5009;50.656;7.188;2022-09-09T11:01:25;23.10;71.50
9941;DHT22;5009;50.656;7.188;2022-09-09T11:06:49;23.00;72.40
9941;DHT22;5009;50.656;7.188;2022-09-09T11:09:21;23.10;73.20
9941;DHT22;5009;50.656;7.188;2022-09-09T11:11:56;23.10;73.10
9941;DHT22;5009;50.656;7.188;2022-09-09T11:14:45;23.20;73.30
9941;DHT22;5009;50.656;7.188;2022-09-09T11:17:21;23.30;73.80
9941;DHT22;5009;50.656;7.188;2022-09-09T11:19:48;23.40;74.00
9941;DHT22;5009;50.656;7.188;2022-09-09T11:22:25;23.50;74.10
9941;DHT22;5009;50.656;7.188;2022-09-09T11:27:55;23.50;74.10
9941;DHT22;5009;50.656;7.188;2022-09-09T11:30:27;23.60;73.40
9941;DHT22;5009;50.656;7.188;2022-09-09T11:35:54;23.60;73.20
9941;DHT22;5009;50.656;7.188;2022-09-09T11:38:45;23.70;73.20
9941;DHT22;5009;50.656;7.188;2022-09-09T11:41:16;23.80;74.40
9941;DHT22;5009;50.656;7.188;2022-09-09T11:43:47;23.60;72.50
9941;DHT22;5009;50.656;7.188;2022-09-09T11:46:15;23.60;72.10
9941;DHT22;5009;50.656;7.188;2022-09-09T11:48:44;23.70;71.90
9941;DHT22;5009;50.656;7.188;2022-09-09T11:51:24;23.50;70.40
9941;DHT22;5009;50.656;7.188;2022-09-09T11:53:55;23.20;70.90
9941;DHT22;5009;50.656;7.188;2022-09-09T11:56:30;23.10;70.80
9941;DHT22;5009;50.656;7.188;2022-09-09T12:01:44;23.00;71.10
9941;DHT22;5009;50.656;7.188;2022-09-09T12:04:21;23.00;71.70
9941;DHT22;5009;50.656;7.188;2022-09-09T12:06:54;23.20;72.60
9941;DHT22;5009;50.656;7.188;2022-09-09T12:09:48;23.40;72.10
9941;DHT22;5009;50.656;7.188;2022-09-09T12:12:29;23.60;72.30
9941;DHT22;5009;50.656;7.188;2022-09-09T12:14:56;23.80;73.30
9941;DHT22;5009;50.656;7.188;2022-09-09T12:17:23;23.80;72.10
9941;DHT22;5009;50.656;7.188;2022-09-09T12:30:29;23.50;71.00
9941;DHT22;5009;50.656;7.188;2022-09-09T12:33:16;23.40;71.20
9941;DHT22;5009;50.656;7.188;2022-09-09T12:35:44;23.50;71.90
9941;DHT22;5009;50.656;7.188;2022-09-09T12:38:17;23.30;70.60
9941;DHT22;5009;50.656;7.188;2022-09-09T12:40:54;23.10;70.10
9941;DHT22;5009;50.656;7.188;2022-09-09T12:43:23;23.10;71.40
9941;DHT22;5009;50.656;7.188;2022-09-09T12:45:52;23.00;71.00
9941;DHT22;5009;50.656;7.188;2022-09-09T12:48:58;23.00;71.40
9941;DHT22;5009;50.656;7.188;2022-09-09T12:51:28;22.90;72.10
9941;DHT22;5009;50.656;7.188;2022-09-09T12:53:55;22.80;71.70
9941;DHT22;5009;50.656;7.188;2022-09-09T12:56:24;22.90;72.40
9941;DHT22;5009;50.656;7.188;2022-09-09T12:58:53;22.80;73.00
9941;DHT22;5009;50.656;7.188;2022-09-09T13:03:50;22.80;72.40
9941;DHT22;5009;50.656;7.188;2022-09-09T13:06:28;22.80;72.80
9941;DHT22;5009;50.656;7.188;2022-09-09T13:08:55;22.80;72.80
9941;DHT22;5009;50.656;7.188;2022-09-09T13:11:41;22.80;72.60
9941;DHT22;5009;50.656;7.188;2022-09-09T13:14:29;22.80;73.00
9941;DHT22;5009;50.656;7.188;2022-09-09T13:16:59;22.80;73.00
9941;DHT22;5009;50.656;7.188;2022-09-09T13:19:29;22.80;72.50
9941;DHT22;5009;50.656;7.188;2022-09-09T13:21:57;22.80;72.60
9941;DHT22;5009;50.656;7.188;2022-09-09T13:24:32;22.80;73.90
9941;DHT22;5009;50.656;7.188;2022-09-09T13:27:00;22.80;72.90
9941;DHT22;5009;50.656;7.188;2022-09-09T13:29:32;22.70;74.80
9941;DHT22;5009;50.656;7.188;2022-09-09T13:32:06;22.60;77.10
9941;DHT22;5009;50.656;7.188;2022-09-09T13:34:34;22.30;82.20
9941;DHT22;5009;50.656;7.188;2022-09-09T13:37:05;22.40;83.50
9941;DHT22;5009;50.656;7.188;2022-09-09T13:39:33;22.50;83.90
9941;DHT22;5009;50.656;7.188;2022-09-09T13:42:02;22.60;82.60
9941;DHT22;5009;50.656;7.188;2022-09-09T13:44:36;22.80;81.60
9941;DHT22;5009;50.656;7.188;2022-09-09T13:49:34;23.20;79.50
9941;DHT22;5009;50.656;7.188;2022-09-09T13:52:11;23.30;79.00
9941;DHT22;5009;50.656;7.188;2022-09-09T13:54:37;23.40;78.80
9941;DHT22;5009;50.656;7.188;2022-09-09T13:57:03;23.50;78.60
9941;DHT22;5009;50.656;7.188;2022-09-09T13:59:30;23.30;78.00
9941;DHT22;5009;50.656;7.188;2022-09-09T14:01:55;23.20;78.40
9941;DHT22;5009;50.656;7.188;2022-09-09T14:04:21;23.00;78.40
9941;DHT22;5009;50.656;7.188;2022-09-09T14:06:47;23.10;80.50
9941;DHT22;5009;50.656;7.188;2022-09-09T14:09:19;23.00;81.40
9941;DHT22;5009;50.656;7.188;2022-09-09T14:11:45;23.00;81.60
9941;DHT22;5009;50.656;7.188;2022-09-09T14:14:11;22.90;80.80
9941;DHT22;5009;50.656;7.188;2022-09-09T14:16:37;22.80;79.90
9941;DHT22;5009;50.656;7.188;2022-09-09T14:19:03;22.90;81.20
9941;DHT22;5009;50.656;7.188;2022-09-09T14:21:29;22.90;80.40
9941;DHT22;5009;50.656;7.188;2022-09-09T14:23:55;22.90;79.90
9941;DHT22;5009;50.656;7.188;2022-09-09T14:26:23;22.90;80.70
9941;DHT22;5009;50.656;7.188;2022-09-09T14:28:49;22.80;79.50
9941;DHT22;5009;50.656;7.188;2022-09-09T14:31:15;23.00;80.30
9941;DHT22;5009;50.656;7.188;2022-09-09T14:33:43;23.00;79.90
9941;DHT22;5009;50.656;7.188;2022-09-09T14:36:09;23.00;80.00
9941;DHT22;5009;50.656;7.188;2022-09-09T14:38:37;22.80;79.50
9941;DHT22;5009;50.656;7.188;2022-09-09T14:41:10;22.90;81.10
9941;DHT22;5009;50.656;7.188;2022-09-09T14:43:38;22.90;79.90
9941;DHT22;5009;50.656;7.188;2022-09-09T14:46:07;22.90;80.30
9941;DHT22;5009;50.656;7.188;2022-09-09T14:48:34;22.80;80.70
9941;DHT22;5009;50.656;7.188;2022-09-09T14:53:33;22.60;84.20
9941;DHT22;5009;50.656;7.188;2022-09-09T14:56:13;22.40;86.50
9941;DHT22;5009;50.656;7.188;2022-09-09T14:58:39;22.30;88.10
9941;DHT22;5009;50.656;7.188;2022-09-09T15:01:07;22.10;90.00
9941;DHT22;5009;50.656;7.188;2022-09-09T15:03:33;22.00;91.40
9941;DHT22;5009;50.656;7.188;2022-09-09T15:06:05;21.90;91.90
9941;DHT22;5009;50.656;7.188;2022-09-09T15:08:31;22.00;92.70
9941;DHT22;5009;50.656;7.188;2022-09-09T15:11:01;22.10;92.90
9941;DHT22;5009;50.656;7.188;2022-09-09T15:13:27;22.10;92.30
9941;DHT22;5009;50.656;7.188;2022-09-09T15:15:53;22.10;92.30
9941;DHT22;5009;50.656;7.188;2022-09-09T15:18:20;22.10;92.20
9941;DHT22;5009;50.656;7.188;2022-09-09T15:20:46;22.20;92.00
9941;DHT22;5009;50.656;7.188;2022-09-09T15:23:12;22.10;91.90
9941;DHT22;5009;50.656;7.188;2022-09-09T15:25:37;22.10;92.20
9941;DHT22;5009;50.656;7.188;2022-09-09T15:28:03;22.00;92.60
9941;DHT22;5009;50.656;7.188;2022-09-09T15:30:28;21.90;93.10
9941;DHT22;5009;50.656;7.188;2022-09-09T15:32:54;21.90;93.00
9941;DHT22;5009;50.656;7.188;2022-09-09T15:35:20;21.90;93.40
9941;DHT22;5009;50.656;7.188;2022-09-09T15:37:45;22.00;93.30
9941;DHT22;5009;50.656;7.188;2022-09-09T15:40:11;22.00;93.10
9941;DHT22;5009;50.656;7.188;2022-09-09T15:42:37;21.90;92.50
9941;DHT22;5009;50.656;7.188;2022-09-09T15:45:03;21.90;92.30
9941;DHT22;5009;50.656;7.188;2022-09-09T15:47:30;21.80;92.40
9941;DHT22;5009;50.656;7.188;2022-09-09T15:49:55;21.90;92.30
9941;DHT22;5009;50.656;7.188;2022-09-09T15:52:21;21.80;92.60
9941;DHT22;5009;50.656;7.188;2022-09-09T15:54:46;21.80;92.90
9941;DHT22;5009;50.656;7.188;2022-09-09T15:57:13;21.80;93.20
9941;DHT22;5009;50.656;7.188;2022-09-09T15:59:38;21.80;93.80
9941;DHT22;5009;50.656;7.188;2022-09-09T16:02:05;21.70;93.90
9941;DHT22;5009;50.656;7.188;2022-09-09T16:04:31;21.80;93.90
9941;DHT22;5009;50.656;7.188;2022-09-09T16:07:03;21.60;93.40
9941;DHT22;5009;50.656;7.188;2022-09-09T16:09:30;21.60;93.40
9941;DHT22;5009;50.656;7.188;2022-09-09T16:11:57;21.40;93.30
9941;DHT22;5009;50.656;7.188;2022-09-09T16:14:24;21.50;93.30
9941;DHT22;5009;50.656;7.188;2022-09-09T16:16:50;21.50;93.50
9941;DHT22;5009;50.656;7.188;2022-09-09T16:19:16;21.40;93.40
9941;DHT22;5009;50.656;7.188;2022-09-09T16:21:44;21.50;93.70
9941;DHT22;5009;50.656;7.188;2022-09-09T16:24:12;21.50;93.70
9941;DHT22;5009;50.656;7.188;2022-09-09T16:26:40;21.40;93.60
9941;DHT22;5009;50.656;7.188;2022-09-09T16:29:06;21.30;93.90
9941;DHT22;5009;50.656;7.188;2022-09-09T16:31:32;21.20;94.00
9941;DHT22;5009;50.656;7.188;2022-09-09T16:33:58;21.20;94.60
9941;DHT22;5009;50.656;7.188;2022-09-09T16:36:35;21.20;94.80
9941;DHT22;5009;50.656;7.188;2022-09-09T16:39:05;21.20;94.90
9941;DHT22;5009;50.656;7.188;2022-09-09T16:41:32;21.10;95.10
9941;DHT22;5009;50.656;7.188;2022-09-09T16:44:03;20.80;95.70
9941;DHT22;5009;50.656;7.188;2022-09-09T16:46:30;20.70;96.70
9941;DHT22;5009;50.656;7.188;2022-09-09T16:48:58;20.60;98.10
9941;DHT22;5009;50.656;7.188;2022-09-09T16:51:26;20.50;99.70
9941;DHT22;5009;50.656;7.188;2022-09-09T16:53:53;20.30;99.90
9941;DHT22;5009;50.656;7.188;2022-09-09T16:56:21;20.10;99.90
9941;DHT22;5009;50.656;7.188;2022-09-09T16:58:58;20.00;99.90
9941;DHT22;5009;50.656;7.188;2022-09-09T17:01:25;19.90;99.90
9941;DHT22;5009;50.656;7.188;2022-09-09T17:03:56;19.90;99.90
9941;DHT22;5009;50.656;7.188;2022-09-09T17:06:22;19.80;99.90
9941;DHT22;5009;50.656;7.188;2022-09-09T17:08:54;19.80;99.90
9941;DHT22;5009;50.656;7.188;2022-09-09T17:11:20;19.80;99.90
9941;DHT22;5009;50.656;7.188;2022-09-09T17:13:46;19.70;99.90
9941;DHT22;5009;50.656;7.188;2022-09-09T17:16:14;19.70;99.90
9941;DHT22;5009;50.656;7.188;2022-09-09T17:18:39;19.70;99.90
9941;DHT22;5009;50.656;7.188;2022-09-09T17:21:11;19.60;99.90
9941;DHT22;5009;50.656;7.188;2022-09-09T17:23:37;19.40;99.90
9941;DHT22;5009;50.656;7.188;2022-09-09T17:26:05;19.30;99.90
9941;DHT22;5009;50.656;7.188;2022-09-09T17:28:33;19.10;99.90
9941;DHT22;5009;50.656;7.188;2022-09-09T17:31:00;19.00;99.90
9941;DHT22;5009;50.656;7.188;2022-09-09T17:33:30;18.90;99.90
9941;DHT22;5009;50.656;7.188;2022-09-09T17:36:18;18.80;99.90
9941;DHT22;5009;50.656;7.188;2022-09-09T17:38:44;18.80;99.90
9941;DHT22;5009;50.656;7.188;2022-09-09T17:41:12;18.80;99.90
9941;DHT22;5009;50.656;7.188;2022-09-09T17:43:38;18.60;99.90
9941;DHT22;5009;50.656;7.188;2022-09-09T17:48:32;18.70;99.90
9941;DHT22;5009;50.656;7.188;2022-09-09T17:50:59;18.70;99.90
9941;DHT22;5009;50.656;7.188;2022-09-09T17:53:25;18.70;99.90
9941;DHT22;5009;50.656;7.188;2022-09-09T17:55:51;18.80;99.90
9941;DHT22;5009;50.656;7.188;2022-09-09T17:58:16;18.80;99.90
9941;DHT22;5009;50.656;7.188;2022-09-09T18:00:42;18.90;99.90
9941;DHT22;5009;50.656;7.188;2022-09-09T18:03:07;18.90;99.90
9941;DHT22;5009;50.656;7.188;2022-09-09T18:05:34;18.80;99.90
9941;DHT22;5009;50.656;7.188;2022-09-09T18:07:59;18.90;99.90
9941;DHT22;5009;50.656;7.188;2022-09-09T18:10:25;18.70;99.90
9941;DHT22;5009;50.656;7.188;2022-09-09T18:12:51;18.70;99.90
9941;DHT22;5009;50.656;7.188;2022-09-09T18:15:16;18.70;99.90
9941;DHT22;5009;50.656;7.188;2022-09-09T18:17:42;18.70;99.90
9941;DHT22;5009;50.656;7.188;2022-09-09T18:20:08;18.70;99.90
9941;DHT22;5009;50.656;7.188;2022-09-09T18:22:34;18.70;99.90
9941;DHT22;5009;50.656;7.188;2022-09-09T18:24:59;18.60;99.90